sensor_id;sensor_type;location;lat;lon;timestamp;P1;durP1;ratioP1;P2;durP2;ratioP2
64938;SDS011;51453;47.738;7.420;2023-08-06T00:01:52;2.33;;;1.40;;
64938;SDS011;51453;47.738;7.420;2023-08-06T00:04:17;2.05;;;1.58;;
64938;SDS011;51453;47.738;7.420;2023-08-06T00:06:44;2.55;;;1.52;;
64938;SDS011;51453;47.738;7.420;2023-08-06T00:09:10;6.43;;;1.55;;
64938;SDS011;51453;47.738;7.420;2023-08-06T00:11:35;1.63;;;1.52;;
64938;SDS011;51453;47.738;7.420;2023-08-06T00:14:01;2.20;;;1.50;;
64938;SDS011;51453;47.738;7.420;2023-08-06T00:16:26;5.57;;;1.67;;
64938;SDS011;51453;47.738;7.420;2023-08-06T00:18:52;3.80;;;1.90;;
64938;SDS011;51453;47.738;7.420;2023-08-06T00:21:17;2.42;;;1.45;;
64938;SDS011;51453;47.738;7.420;2023-08-06T00:23:43;2.58;;;1.60;;
64938;SDS011;51453;47.738;7.420;2023-08-06T00:26:09;2.88;;;1.55;;
64938;SDS011;51453;47.738;7.420;2023-08-06T00:28:34;2.85;;;1.15;;
64938;SDS011;51453;47.738;7.420;2023-08-06T00:31:00;1.45;;;1.30;;
64938;SDS011;51453;47.738;7.420;2023-08-06T00:33:25;1.85;;;1.42;;
64938;SDS011;51453;47.738;7.420;2023-08-06T00:35:51;4.15;;;1.65;;
64938;SDS011;51453;47.738;7.420;2023-08-06T00:38:17;1.42;;;1.10;;
64938;SDS011;51453;47.738;7.420;2023-08-06T00:40:42;3.83;;;1.17;;
64938;SDS011;51453;47.738;7.420;2023-08-06T00:43:08;3.90;;;1.70;;
64938;SDS011;51453;47.738;7.420;2023-08-06T00:45:34;2.25;;;1.30;;
64938;SDS011;51453;47.738;7.420;2023-08-06T00:48:01;1.92;;;1.30;;
64938;SDS011;51453;47.738;7.420;2023-08-06T00:50:28;1.40;;;1.30;;
64938;SDS011;51453;47.738;7.420;2023-08-06T00:52:53;5.30;;;1.30;;
64938;SDS011;51453;47.738;7.420;2023-08-06T00:55:19;1.75;;;1.10;;
64938;SDS011;51453;47.738;7.420;2023-08-06T00:57:45;2.38;;;1.20;;
64938;SDS011;51453;47.738;7.420;2023-08-06T01:00:11;3.50;;;1.30;;
64938;SDS011;51453;47.738;7.420;2023-08-06T01:02:37;3.85;;;1.20;;
64938;SDS011;51453;47.738;7.420;2023-08-06T01:05:03;2.63;;;1.17;;
64938;SDS011;51453;47.738;7.420;2023-08-06T01:07:33;2.15;;;1.10;;
64938;SDS011;51453;47.738;7.420;2023-08-06T01:15:32;1.50;;;1.20;;
64938;SDS011;51453;47.738;7.420;2023-08-06T01:18:11;2.15;;;1.00;;
64938;SDS011;51453;47.738;7.420;2023-08-06T01:20:37;2.72;;;1.20;;
64938;SDS011;51453;47.738;7.420;2023-08-06T01:23:02;3.95;;;1.38;;
64938;SDS011;51453;47.738;7.420;2023-08-06T01:25:35;1.65;;;0.85;;
64938;SDS011;51453;47.738;7.420;2023-08-06T01:31:30;3.35;;;1.00;;
64938;SDS011;51453;47.738;7.420;2023-08-06T01:33:58;2.08;;;0.90;;
64938;SDS011;51453;47.738;7.420;2023-08-06T01:36:24;3.47;;;0.90;;
64938;SDS011;51453;47.738;7.420;2023-08-06T01:38:54;2.17;;;1.13;;
64938;SDS011;51453;47.738;7.420;2023-08-06T01:41:19;2.78;;;0.77;;
64938;SDS011;51453;47.738;7.420;2023-08-06T01:43:45;3.55;;;0.80;;
64938;SDS011;51453;47.738;7.420;2023-08-06T01:46:11;3.45;;;1.05;;
64938;SDS011;51453;47.738;7.420;2023-08-06T01:48:36;3.13;;;0.73;;
64938;SDS011;51453;47.738;7.420;2023-08-06T01:51:05;2.50;;;1.08;;
64938;SDS011;51453;47.738;7.420;2023-08-06T01:53:31;3.72;;;1.10;;
64938;SDS011;51453;47.738;7.420;2023-08-06T01:55:57;1.25;;;0.73;;
64938;SDS011;51453;47.738;7.420;2023-08-06T01:58:23;2.03;;;0.85;;
64938;SDS011;51453;47.738;7.420;2023-08-06T02:00:48;1.63;;;0.80;;
64938;SDS011;51453;47.738;7.420;2023-08-06T02:03:14;3.53;;;0.93;;
64938;SDS011;51453;47.738;7.420;2023-08-06T02:05:40;2.22;;;1.10;;
64938;SDS011;51453;47.738;7.420;2023-08-06T02:08:05;5.82;;;1.17;;
64938;SDS011;51453;47.738;7.420;2023-08-06T02:10:31;3.53;;;0.75;;
64938;SDS011;51453;47.738;7.420;2023-08-06T02:12:57;2.70;;;0.80;;
64938;SDS011;51453;47.738;7.420;2023-08-06T02:15:23;1.15;;;0.30;;
64938;SDS011;51453;47.738;7.420;2023-08-06T02:17:48;1.48;;;0.40;;
64938;SDS011;51453;47.738;7.420;2023-08-06T02:20:14;0.68;;;0.30;;
64938;SDS011;51453;47.738;7.420;2023-08-06T02:22:40;0.45;;;0.28;;
64938;SDS011;51453;47.738;7.420;2023-08-06T02:25:05;1.33;;;0.38;;
64938;SDS011;51453;47.738;7.420;2023-08-06T02:27:31;1.45;;;0.40;;
64938;SDS011;51453;47.738;7.420;2023-08-06T02:29:57;1.98;;;0.40;;
64938;SDS011;51453;47.738;7.420;2023-08-06T02:32:22;3.70;;;0.60;;
64938;SDS011;51453;47.738;7.420;2023-08-06T02:34:48;2.38;;;0.50;;
64938;SDS011;51453;47.738;7.420;2023-08-06T02:37:14;3.42;;;0.60;;
64938;SDS011;51453;47.738;7.420;2023-08-06T02:39:39;4.28;;;0.50;;
64938;SDS011;51453;47.738;7.420;2023-08-06T02:42:08;2.80;;;0.60;;
64938;SDS011;51453;47.738;7.420;2023-08-06T02:44:34;4.15;;;0.77;;
64938;SDS011;51453;47.738;7.420;2023-08-06T02:47:00;3.42;;;0.70;;
64938;SDS011;51453;47.738;7.420;2023-08-06T02:49:26;8.38;;;1.00;;
64938;SDS011;51453;47.738;7.420;2023-08-06T02:51:52;2.15;;;0.60;;
64938;SDS011;51453;47.738;7.420;2023-08-06T02:54:18;6.95;;;1.02;;
64938;SDS011;51453;47.738;7.420;2023-08-06T02:56:44;5.70;;;0.90;;
64938;SDS011;51453;47.738;7.420;2023-08-06T02:59:10;7.07;;;1.10;;
64938;SDS011;51453;47.738;7.420;2023-08-06T03:01:36;5.32;;;1.20;;
64938;SDS011;51453;47.738;7.420;2023-08-06T03:04:02;6.07;;;1.05;;
64938;SDS011;51453;47.738;7.420;2023-08-06T03:06:28;5.40;;;0.85;;
64938;SDS011;51453;47.738;7.420;2023-08-06T03:08:53;6.20;;;1.27;;
64938;SDS011;51453;47.738;7.420;2023-08-06T03:11:19;5.38;;;1.30;;
64938;SDS011;51453;47.738;7.420;2023-08-06T03:13:45;7.28;;;1.38;;
64938;SDS011;51453;47.738;7.420;2023-08-06T03:16:11;7.07;;;1.20;;
64938;SDS011;51453;47.738;7.420;2023-08-06T03:18:37;9.00;;;1.40;;
64938;SDS011;51453;47.738;7.420;2023-08-06T03:21:03;9.07;;;1.30;;
64938;SDS011;51453;47.738;7.420;2023-08-06T03:23:28;7.40;;;1.45;;
64938;SDS011;51453;47.738;7.420;2023-08-06T03:25:54;11.60;;;2.00;;
64938;SDS011;51453;47.738;7.420;2023-08-06T03:28:19;11.52;;;1.80;;
64938;SDS011;51453;47.738;7.420;2023-08-06T03:30:45;6.05;;;1.45;;
64938;SDS011;51453;47.738;7.420;2023-08-06T03:33:11;12.23;;;1.50;;
64938;SDS011;51453;47.738;7.420;2023-08-06T03:35:36;10.98;;;2.05;;
64938;SDS011;51453;47.738;7.420;2023-08-06T03:38:02;8.65;;;1.60;;
64938;SDS011;51453;47.738;7.420;2023-08-06T03:40:27;14.85;;;1.83;;
64938;SDS011;51453;47.738;7.420;2023-08-06T03:42:53;8.85;;;1.65;;
64938;SDS011;51453;47.738;7.420;2023-08-06T03:45:19;6.90;;;1.40;;
64938;SDS011;51453;47.738;7.420;2023-08-06T03:47:44;9.82;;;1.58;;
64938;SDS011;51453;47.738;7.420;2023-08-06T03:50:10;10.57;;;1.67;;
64938;SDS011;51453;47.738;7.420;2023-08-06T03:52:36;10.00;;;1.63;;
64938;SDS011;51453;47.738;7.420;2023-08-06T03:55:01;12.10;;;1.70;;
64938;SDS011;51453;47.738;7.420;2023-08-06T03:57:27;9.48;;;1.60;;
64938;SDS011;51453;47.738;7.420;2023-08-06T03:59:53;9.43;;;1.60;;
64938;SDS011;51453;47.738;7.420;2023-08-06T04:02:18;13.48;;;2.38;;
64938;SDS011;51453;47.738;7.420;2023-08-06T04:04:44;12.70;;;1.90;;
64938;SDS011;51453;47.738;7.420;2023-08-06T04:07:09;14.32;;;2.00;;
64938;SDS011;51453;47.738;7.420;2023-08-06T04:09:50;9.18;;;1.65;;
64938;SDS011;51453;47.738;7.420;2023-08-06T04:12:20;6.18;;;1.58;;
64938;SDS011;51453;47.738;7.420;2023-08-06T04:14:45;10.52;;;1.85;;
64938;SDS011;51453;47.738;7.420;2023-08-06T04:17:11;7.75;;;1.58;;
64938;SDS011;51453;47.738;7.420;2023-08-06T04:19:36;13.57;;;1.83;;
64938;SDS011;51453;47.738;7.420;2023-08-06T04:22:02;14.43;;;2.03;;
64938;SDS011;51453;47.738;7.420;2023-08-06T04:24:28;12.98;;;1.80;;
64938;SDS011;51453;47.738;7.420;2023-08-06T04:26:53;12.10;;;1.70;;
64938;SDS011;51453;47.738;7.420;2023-08-06T04:29:19;11.15;;;1.98;;
64938;SDS011;51453;47.738;7.420;2023-08-06T04:31:45;12.57;;;2.00;;
64938;SDS011;51453;47.738;7.420;2023-08-06T04:34:10;9.27;;;1.67;;
64938;SDS011;51453;47.738;7.420;2023-08-06T04:36:36;9.73;;;1.80;;
64938;SDS011;51453;47.738;7.420;2023-08-06T04:39:03;11.23;;;1.95;;
64938;SDS011;51453;47.738;7.420;2023-08-06T04:41:29;12.73;;;1.98;;
64938;SDS011;51453;47.738;7.420;2023-08-06T04:43:56;8.43;;;1.50;;
64938;SDS011;51453;47.738;7.420;2023-08-06T04:46:22;12.48;;;2.00;;
64938;SDS011;51453;47.738;7.420;2023-08-06T04:48:47;15.77;;;1.90;;
64938;SDS011;51453;47.738;7.420;2023-08-06T04:51:13;11.50;;;1.70;;
64938;SDS011;51453;47.738;7.420;2023-08-06T04:53:39;8.93;;;1.65;;
64938;SDS011;51453;47.738;7.420;2023-08-06T04:56:05;11.18;;;2.00;;
64938;SDS011;51453;47.738;7.420;2023-08-06T04:58:31;7.18;;;1.42;;
64938;SDS011;51453;47.738;7.420;2023-08-06T05:00:56;12.45;;;2.15;;
64938;SDS011;51453;47.738;7.420;2023-08-06T05:03:22;9.18;;;1.83;;
64938;SDS011;51453;47.738;7.420;2023-08-06T05:05:48;9.07;;;1.73;;
64938;SDS011;51453;47.738;7.420;2023-08-06T05:08:14;10.88;;;1.67;;
64938;SDS011;51453;47.738;7.420;2023-08-06T05:10:44;9.20;;;1.58;;
64938;SDS011;51453;47.738;7.420;2023-08-06T05:13:10;10.32;;;1.73;;
64938;SDS011;51453;47.738;7.420;2023-08-06T05:15:36;10.68;;;1.55;;
64938;SDS011;51453;47.738;7.420;2023-08-06T05:18:02;14.02;;;1.40;;
64938;SDS011;51453;47.738;7.420;2023-08-06T05:20:27;7.45;;;1.20;;
64938;SDS011;51453;47.738;7.420;2023-08-06T05:22:53;9.95;;;1.40;;
64938;SDS011;51453;47.738;7.420;2023-08-06T05:25:19;8.85;;;1.30;;
64938;SDS011;51453;47.738;7.420;2023-08-06T05:27:45;8.65;;;1.33;;
64938;SDS011;51453;47.738;7.420;2023-08-06T05:30:11;14.73;;;1.77;;
64938;SDS011;51453;47.738;7.420;2023-08-06T05:32:36;9.63;;;1.60;;
64938;SDS011;51453;47.738;7.420;2023-08-06T05:35:02;7.10;;;1.10;;
64938;SDS011;51453;47.738;7.420;2023-08-06T05:37:28;5.18;;;1.00;;
64938;SDS011;51453;47.738;7.420;2023-08-06T05:39:54;6.57;;;1.20;;
64938;SDS011;51453;47.738;7.420;2023-08-06T05:42:19;9.05;;;1.30;;
64938;SDS011;51453;47.738;7.420;2023-08-06T05:44:45;6.88;;;1.20;;
64938;SDS011;51453;47.738;7.420;2023-08-06T05:47:10;8.02;;;1.30;;
64938;SDS011;51453;47.738;7.420;2023-08-06T05:49:36;5.15;;;1.20;;
64938;SDS011;51453;47.738;7.420;2023-08-06T05:52:02;6.35;;;1.55;;
64938;SDS011;51453;47.738;7.420;2023-08-06T05:54:31;6.75;;;1.40;;
64938;SDS011;51453;47.738;7.420;2023-08-06T05:56:56;8.30;;;1.25;;
64938;SDS011;51453;47.738;7.420;2023-08-06T05:59:22;9.88;;;1.35;;
64938;SDS011;51453;47.738;7.420;2023-08-06T06:01:48;8.70;;;1.02;;
64938;SDS011;51453;47.738;7.420;2023-08-06T06:04:13;8.75;;;1.30;;
64938;SDS011;51453;47.738;7.420;2023-08-06T06:06:39;4.68;;;1.08;;
64938;SDS011;51453;47.738;7.420;2023-08-06T06:09:06;3.22;;;0.75;;
64938;SDS011;51453;47.738;7.420;2023-08-06T06:11:32;5.45;;;0.90;;
64938;SDS011;51453;47.738;7.420;2023-08-06T06:13:59;3.97;;;0.80;;
64938;SDS011;51453;47.738;7.420;2023-08-06T06:16:24;5.85;;;1.33;;
64938;SDS011;51453;47.738;7.420;2023-08-06T06:18:50;4.53;;;1.23;;
64938;SDS011;51453;47.738;7.420;2023-08-06T06:21:16;3.78;;;0.88;;
64938;SDS011;51453;47.738;7.420;2023-08-06T06:23:42;4.22;;;0.90;;
64938;SDS011;51453;47.738;7.420;2023-08-06T06:26:08;5.85;;;0.80;;
64938;SDS011;51453;47.738;7.420;2023-08-06T06:28:35;3.40;;;0.75;;
64938;SDS011;51453;47.738;7.420;2023-08-06T06:31:00;4.30;;;0.88;;
64938;SDS011;51453;47.738;7.420;2023-08-06T06:33:27;4.28;;;0.75;;
64938;SDS011;51453;47.738;7.420;2023-08-06T06:35:52;4.93;;;0.70;;
64938;SDS011;51453;47.738;7.420;2023-08-06T06:38:18;2.67;;;0.50;;
64938;SDS011;51453;47.738;7.420;2023-08-06T06:40:44;2.75;;;0.52;;
64938;SDS011;51453;47.738;7.420;2023-08-06T06:43:18;4.15;;;0.50;;
64938;SDS011;51453;47.738;7.420;2023-08-06T06:45:43;1.65;;;0.40;;
64938;SDS011;51453;47.738;7.420;2023-08-06T06:48:09;1.80;;;0.50;;
64938;SDS011;51453;47.738;7.420;2023-08-06T06:50:35;3.70;;;0.60;;
64938;SDS011;51453;47.738;7.420;2023-08-06T06:53:01;1.85;;;0.30;;
64938;SDS011;51453;47.738;7.420;2023-08-06T06:55:27;1.02;;;0.30;;
64938;SDS011;51453;47.738;7.420;2023-08-06T06:57:52;2.75;;;0.20;;
64938;SDS011;51453;47.738;7.420;2023-08-06T07:00:18;2.50;;;0.30;;
64938;SDS011;51453;47.738;7.420;2023-08-06T07:02:44;0.93;;;0.20;;
64938;SDS011;51453;47.738;7.420;2023-08-06T07:05:09;1.00;;;0.20;;
64938;SDS011;51453;47.738;7.420;2023-08-06T07:07:35;0.57;;;0.28;;
64938;SDS011;51453;47.738;7.420;2023-08-06T07:10:02;1.20;;;0.22;;
64938;SDS011;51453;47.738;7.420;2023-08-06T07:12:28;1.95;;;0.30;;
64938;SDS011;51453;47.738;7.420;2023-08-06T07:14:53;0.98;;;0.20;;
64938;SDS011;51453;47.738;7.420;2023-08-06T07:17:19;0.75;;;0.22;;
64938;SDS011;51453;47.738;7.420;2023-08-06T07:19:44;0.85;;;0.30;;
64938;SDS011;51453;47.738;7.420;2023-08-06T07:22:10;2.03;;;0.32;;
64938;SDS011;51453;47.738;7.420;2023-08-06T07:24:36;0.88;;;0.28;;
64938;SDS011;51453;47.738;7.420;2023-08-06T07:27:01;0.35;;;0.10;;
64938;SDS011;51453;47.738;7.420;2023-08-06T07:29:27;1.55;;;0.30;;
64938;SDS011;51453;47.738;7.420;2023-08-06T07:31:53;1.88;;;0.40;;
64938;SDS011;51453;47.738;7.420;2023-08-06T07:34:20;1.25;;;0.20;;
64938;SDS011;51453;47.738;7.420;2023-08-06T07:36:46;1.45;;;0.10;;
64938;SDS011;51453;47.738;7.420;2023-08-06T07:39:12;0.63;;;0.20;;
64938;SDS011;51453;47.738;7.420;2023-08-06T07:41:38;0.73;;;0.20;;
64938;SDS011;51453;47.738;7.420;2023-08-06T07:44:04;1.23;;;0.30;;
64938;SDS011;51453;47.738;7.420;2023-08-06T07:46:29;0.75;;;0.30;;
64938;SDS011;51453;47.738;7.420;2023-08-06T07:48:55;0.93;;;0.30;;
64938;SDS011;51453;47.738;7.420;2023-08-06T07:51:20;1.23;;;0.30;;
64938;SDS011;51453;47.738;7.420;2023-08-06T07:53:46;1.05;;;0.30;;
64938;SDS011;51453;47.738;7.420;2023-08-06T07:56:12;0.38;;;0.10;;
64938;SDS011;51453;47.738;7.420;2023-08-06T07:58:37;1.83;;;0.30;;
64938;SDS011;51453;47.738;7.420;2023-08-06T08:01:03;2.17;;;0.20;;
64938;SDS011;51453;47.738;7.420;2023-08-06T08:03:30;1.27;;;0.28;;
64938;SDS011;51453;47.738;7.420;2023-08-06T08:05:56;1.30;;;0.30;;
64938;SDS011;51453;47.738;7.420;2023-08-06T08:08:22;0.65;;;0.20;;
64938;SDS011;51453;47.738;7.420;2023-08-06T08:10:48;1.05;;;0.30;;
64938;SDS011;51453;47.738;7.420;2023-08-06T08:13:14;1.73;;;0.30;;
64938;SDS011;51453;47.738;7.420;2023-08-06T08:15:39;3.63;;;0.30;;
64938;SDS011;51453;47.738;7.420;2023-08-06T08:18:05;4.13;;;0.20;;
64938;SDS011;51453;47.738;7.420;2023-08-06T08:20:31;0.88;;;0.20;;
64938;SDS011;51453;47.738;7.420;2023-08-06T08:23:00;0.75;;;0.20;;
64938;SDS011;51453;47.738;7.420;2023-08-06T08:25:27;1.45;;;0.30;;
64938;SDS011;51453;47.738;7.420;2023-08-06T08:27:54;0.98;;;0.10;;
64938;SDS011;51453;47.738;7.420;2023-08-06T08:30:20;0.47;;;0.20;;
64938;SDS011;51453;47.738;7.420;2023-08-06T08:32:47;1.08;;;0.10;;
64938;SDS011;51453;47.738;7.420;2023-08-06T08:35:13;0.60;;;0.20;;
64938;SDS011;51453;47.738;7.420;2023-08-06T08:37:40;0.55;;;0.20;;
64938;SDS011;51453;47.738;7.420;2023-08-06T08:40:07;1.00;;;0.15;;
64938;SDS011;51453;47.738;7.420;2023-08-06T08:42:33;1.02;;;0.20;;
64938;SDS011;51453;47.738;7.420;2023-08-06T08:44:59;1.02;;;0.10;;
64938;SDS011;51453;47.738;7.420;2023-08-06T08:47:25;1.35;;;0.10;;
64938;SDS011;51453;47.738;7.420;2023-08-06T08:49:52;3.05;;;0.20;;
64938;SDS011;51453;47.738;7.420;2023-08-06T08:52:20;0.30;;;0.10;;
64938;SDS011;51453;47.738;7.420;2023-08-06T08:54:47;0.95;;;0.20;;
64938;SDS011;51453;47.738;7.420;2023-08-06T08:57:17;4.07;;;0.20;;
64938;SDS011;51453;47.738;7.420;2023-08-06T08:59:42;1.02;;;0.10;;
64938;SDS011;51453;47.738;7.420;2023-08-06T09:02:09;0.10;;;0.10;;
64938;SDS011;51453;47.738;7.420;2023-08-06T09:04:36;1.88;;;0.10;;
64938;SDS011;51453;47.738;7.420;2023-08-06T09:07:02;1.20;;;0.20;;
64938;SDS011;51453;47.738;7.420;2023-08-06T09:09:33;1.90;;;0.30;;
64938;SDS011;51453;47.738;7.420;2023-08-06T09:12:04;0.70;;;0.17;;
64938;SDS011;51453;47.738;7.420;2023-08-06T09:14:37;1.95;;;0.77;;
64938;SDS011;51453;47.738;7.420;2023-08-06T09:17:03;1.55;;;0.82;;
64938;SDS011;51453;47.738;7.420;2023-08-06T09:19:29;0.20;;;0.20;;
64938;SDS011;51453;47.738;7.420;2023-08-06T09:21:55;0.20;;;0.20;;
64938;SDS011;51453;47.738;7.420;2023-08-06T09:24:22;3.47;;;2.30;;
64938;SDS011;51453;47.738;7.420;2023-08-06T09:26:47;2.97;;;2.00;;
64938;SDS011;51453;47.738;7.420;2023-08-06T09:29:13;0.40;;;0.38;;
64938;SDS011;51453;47.738;7.420;2023-08-06T09:36:42;1.20;;;0.55;;
64938;SDS011;51453;47.738;7.420;2023-08-06T09:39:15;0.85;;;0.30;;
64938;SDS011;51453;47.738;7.420;2023-08-06T09:41:42;1.27;;;0.40;;
64938;SDS011;51453;47.738;7.420;2023-08-06T09:46:41;0.82;;;0.20;;
64938;SDS011;51453;47.738;7.420;2023-08-06T09:49:06;0.93;;;0.20;;
64938;SDS011;51453;47.738;7.420;2023-08-06T09:51:33;0.50;;;0.20;;
64938;SDS011;51453;47.738;7.420;2023-08-06T09:54:00;0.25;;;0.25;;
64938;SDS011;51453;47.738;7.420;2023-08-06T09:56:26;0.30;;;0.30;;
64938;SDS011;51453;47.738;7.420;2023-08-06T09:58:53;1.10;;;0.40;;
64938;SDS011;51453;47.738;7.420;2023-08-06T10:01:20;0.40;;;0.22;;
64938;SDS011;51453;47.738;7.420;2023-08-06T10:03:47;0.68;;;0.22;;
64938;SDS011;51453;47.738;7.420;2023-08-06T10:06:14;0.32;;;0.25;;
64938;SDS011;51453;47.738;7.420;2023-08-06T10:08:40;0.20;;;0.20;;
64938;SDS011;51453;47.738;7.420;2023-08-06T10:11:07;0.30;;;0.30;;
64938;SDS011;51453;47.738;7.420;2023-08-06T10:13:33;0.30;;;0.30;;
64938;SDS011;51453;47.738;7.420;2023-08-06T10:16:00;1.27;;;0.30;;
64938;SDS011;51453;47.738;7.420;2023-08-06T10:18:27;0.30;;;0.28;;
64938;SDS011;51453;47.738;7.420;2023-08-06T10:20:53;1.77;;;0.60;;
64938;SDS011;51453;47.738;7.420;2023-08-06T10:23:19;0.73;;;0.40;;
64938;SDS011;51453;47.738;7.420;2023-08-06T10:25:57;0.38;;;0.30;;
64938;SDS011;51453;47.738;7.420;2023-08-06T10:28:24;1.20;;;0.38;;
64938;SDS011;51453;47.738;7.420;2023-08-06T10:31:01;0.10;;;0.10;;
64938;SDS011;51453;47.738;7.420;2023-08-06T10:33:39;0.20;;;0.10;;
64938;SDS011;51453;47.738;7.420;2023-08-06T10:36:09;0.50;;;0.20;;
64938;SDS011;51453;47.738;7.420;2023-08-06T10:38:36;0.10;;;0.10;;
64938;SDS011;51453;47.738;7.420;2023-08-06T10:41:30;0.10;;;0.10;;
64938;SDS011;51453;47.738;7.420;2023-08-06T10:44:08;0.10;;;0.10;;
64938;SDS011;51453;47.738;7.420;2023-08-06T10:46:35;0.08;;;0.08;;
64938;SDS011;51453;47.738;7.420;2023-08-06T10:49:05;0.10;;;0.10;;
64938;SDS011;51453;47.738;7.420;2023-08-06T10:51:32;1.63;;;0.63;;
64938;SDS011;51453;47.738;7.420;2023-08-06T10:53:58;2.47;;;1.25;;
64938;SDS011;51453;47.738;7.420;2023-08-06T10:56:24;1.52;;;1.42;;
64938;SDS011;51453;47.738;7.420;2023-08-06T10:58:54;2.60;;;0.20;;
64938;SDS011;51453;47.738;7.420;2023-08-06T11:01:23;0.32;;;0.20;;
64938;SDS011;51453;47.738;7.420;2023-08-06T11:03:49;0.50;;;0.38;;
64938;SDS011;51453;47.738;7.420;2023-08-06T11:06:21;1.85;;;0.35;;
64938;SDS011;51453;47.738;7.420;2023-08-06T11:08:49;0.22;;;0.20;;
64938;SDS011;51453;47.738;7.420;2023-08-06T11:11:16;3.60;;;0.30;;
64938;SDS011;51453;47.738;7.420;2023-08-06T11:13:43;2.30;;;0.50;;
64938;SDS011;51453;47.738;7.420;2023-08-06T11:16:11;0.65;;;0.45;;
64938;SDS011;51453;47.738;7.420;2023-08-06T11:18:38;0.80;;;0.40;;
64938;SDS011;51453;47.738;7.420;2023-08-06T11:21:05;0.75;;;0.40;;
64938;SDS011;51453;47.738;7.420;2023-08-06T11:23:31;1.25;;;0.40;;
64938;SDS011;51453;47.738;7.420;2023-08-06T11:25:57;0.50;;;0.40;;
64938;SDS011;51453;47.738;7.420;2023-08-06T11:28:23;4.93;;;0.55;;
64938;SDS011;51453;47.738;7.420;2023-08-06T11:30:49;1.75;;;0.60;;
64938;SDS011;51453;47.738;7.420;2023-08-06T11:33:25;2.28;;;0.52;;
64938;SDS011;51453;47.738;7.420;2023-08-06T11:35:54;1.38;;;0.70;;
64938;SDS011;51453;47.738;7.420;2023-08-06T11:38:21;1.85;;;0.60;;
64938;SDS011;51453;47.738;7.420;2023-08-06T11:40:50;0.73;;;0.60;;
64938;SDS011;51453;47.738;7.420;2023-08-06T11:43:17;2.45;;;0.80;;
64938;SDS011;51453;47.738;7.420;2023-08-06T11:45:44;0.93;;;0.90;;
64938;SDS011;51453;47.738;7.420;2023-08-06T11:48:10;0.82;;;0.60;;
64938;SDS011;51453;47.738;7.420;2023-08-06T11:50:36;1.00;;;0.60;;
64938;SDS011;51453;47.738;7.420;2023-08-06T11:53:03;0.50;;;0.47;;
64938;SDS011;51453;47.738;7.420;2023-08-06T11:55:29;0.80;;;0.80;;
64938;SDS011;51453;47.738;7.420;2023-08-06T11:57:55;1.27;;;0.70;;
64938;SDS011;51453;47.738;7.420;2023-08-06T12:00:23;0.77;;;0.30;;
64938;SDS011;51453;47.738;7.420;2023-08-06T12:02:50;0.90;;;0.35;;
64938;SDS011;51453;47.738;7.420;2023-08-06T12:05:20;1.40;;;0.55;;
64938;SDS011;51453;47.738;7.420;2023-08-06T12:07:50;0.60;;;0.60;;
64938;SDS011;51453;47.738;7.420;2023-08-06T12:10:17;0.60;;;0.55;;
64938;SDS011;51453;47.738;7.420;2023-08-06T12:12:47;0.40;;;0.40;;
64938;SDS011;51453;47.738;7.420;2023-08-06T12:15:13;1.30;;;0.50;;
64938;SDS011;51453;47.738;7.420;2023-08-06T12:17:39;0.60;;;0.55;;
64938;SDS011;51453;47.738;7.420;2023-08-06T12:20:05;3.03;;;0.70;;
64938;SDS011;51453;47.738;7.420;2023-08-06T12:22:32;0.88;;;0.60;;
64938;SDS011;51453;47.738;7.420;2023-08-06T12:25:03;1.70;;;0.65;;
64938;SDS011;51453;47.738;7.420;2023-08-06T12:29:59;0.75;;;0.70;;
64938;SDS011;51453;47.738;7.420;2023-08-06T12:32:24;1.05;;;0.52;;
64938;SDS011;51453;47.738;7.420;2023-08-06T12:34:50;0.50;;;0.50;;
64938;SDS011;51453;47.738;7.420;2023-08-06T12:37:15;1.08;;;0.60;;
64938;SDS011;51453;47.738;7.420;2023-08-06T12:39:41;2.28;;;0.50;;
64938;SDS011;51453;47.738;7.420;2023-08-06T12:42:07;1.25;;;0.40;;
64938;SDS011;51453;47.738;7.420;2023-08-06T12:44:32;0.30;;;0.30;;
64938;SDS011;51453;47.738;7.420;2023-08-06T12:46:58;2.08;;;0.70;;
64938;SDS011;51453;47.738;7.420;2023-08-06T12:49:24;0.77;;;0.50;;
64938;SDS011;51453;47.738;7.420;2023-08-06T12:51:51;0.40;;;0.40;;
64938;SDS011;51453;47.738;7.420;2023-08-06T12:54:18;1.05;;;0.40;;
64938;SDS011;51453;47.738;7.420;2023-08-06T12:56:44;1.73;;;0.50;;
64938;SDS011;51453;47.738;7.420;2023-08-06T12:59:10;0.63;;;0.60;;
64938;SDS011;51453;47.738;7.420;2023-08-06T13:01:39;0.45;;;0.43;;
64938;SDS011;51453;47.738;7.420;2023-08-06T13:04:05;0.40;;;0.40;;
64938;SDS011;51453;47.738;7.420;2023-08-06T13:06:30;0.40;;;0.40;;
64938;SDS011;51453;47.738;7.420;2023-08-06T13:09:00;0.73;;;0.40;;
64938;SDS011;51453;47.738;7.420;2023-08-06T13:11:26;0.38;;;0.30;;
64938;SDS011;51453;47.738;7.420;2023-08-06T13:13:52;2.17;;;0.40;;
64938;SDS011;51453;47.738;7.420;2023-08-06T13:16:17;1.73;;;0.50;;
64938;SDS011;51453;47.738;7.420;2023-08-06T13:18:43;0.68;;;0.40;;
64938;SDS011;51453;47.738;7.420;2023-08-06T13:21:09;0.40;;;0.30;;
64938;SDS011;51453;47.738;7.420;2023-08-06T13:23:34;0.40;;;0.40;;
64938;SDS011;51453;47.738;7.420;2023-08-06T13:26:00;0.35;;;0.35;;
64938;SDS011;51453;47.738;7.420;2023-08-06T13:28:26;0.73;;;0.40;;
64938;SDS011;51453;47.738;7.420;2023-08-06T13:30:51;4.53;;;0.60;;
64938;SDS011;51453;47.738;7.420;2023-08-06T13:33:17;2.50;;;0.52;;
64938;SDS011;51453;47.738;7.420;2023-08-06T13:35:43;1.80;;;0.60;;
64938;SDS011;51453;47.738;7.420;2023-08-06T13:38:08;1.90;;;0.68;;
64938;SDS011;51453;47.738;7.420;2023-08-06T13:40:34;0.80;;;0.50;;
64938;SDS011;51453;47.738;7.420;2023-08-06T13:43:00;1.35;;;0.70;;
64938;SDS011;51453;47.738;7.420;2023-08-06T13:45:26;1.02;;;0.60;;
64938;SDS011;51453;47.738;7.420;2023-08-06T13:47:52;1.15;;;0.47;;
64938;SDS011;51453;47.738;7.420;2023-08-06T13:50:17;4.15;;;0.60;;
64938;SDS011;51453;47.738;7.420;2023-08-06T13:52:44;2.70;;;0.57;;
64938;SDS011;51453;47.738;7.420;2023-08-06T13:55:09;0.80;;;0.70;;
64938;SDS011;51453;47.738;7.420;2023-08-06T13:57:35;0.57;;;0.52;;
64938;SDS011;51453;47.738;7.420;2023-08-06T14:00:01;2.63;;;0.60;;
64938;SDS011;51453;47.738;7.420;2023-08-06T14:02:27;1.70;;;0.65;;
64938;SDS011;51453;47.738;7.420;2023-08-06T14:04:53;2.22;;;0.80;;
64938;SDS011;51453;47.738;7.420;2023-08-06T14:07:19;1.25;;;0.50;;
64938;SDS011;51453;47.738;7.420;2023-08-06T14:09:45;1.65;;;0.80;;
64938;SDS011;51453;47.738;7.420;2023-08-06T14:12:12;1.52;;;0.60;;
64938;SDS011;51453;47.738;7.420;2023-08-06T14:14:38;1.05;;;0.70;;
64938;SDS011;51453;47.738;7.420;2023-08-06T14:17:03;0.82;;;0.60;;
64938;SDS011;51453;47.738;7.420;2023-08-06T14:19:29;1.38;;;0.60;;
64938;SDS011;51453;47.738;7.420;2023-08-06T14:21:55;0.60;;;0.60;;
64938;SDS011;51453;47.738;7.420;2023-08-06T14:24:20;1.27;;;0.70;;
64938;SDS011;51453;47.738;7.420;2023-08-06T14:26:46;1.75;;;0.40;;
64938;SDS011;51453;47.738;7.420;2023-08-06T14:29:12;4.10;;;0.70;;
64938;SDS011;51453;47.738;7.420;2023-08-06T14:31:38;1.08;;;0.50;;
64938;SDS011;51453;47.738;7.420;2023-08-06T14:34:04;1.45;;;0.82;;
64938;SDS011;51453;47.738;7.420;2023-08-06T14:36:30;1.00;;;0.57;;
64938;SDS011;51453;47.738;7.420;2023-08-06T14:38:56;1.05;;;0.60;;
64938;SDS011;51453;47.738;7.420;2023-08-06T14:41:21;1.13;;;0.68;;
64938;SDS011;51453;47.738;7.420;2023-08-06T14:43:47;1.80;;;0.70;;
64938;SDS011;51453;47.738;7.420;2023-08-06T14:46:12;1.17;;;0.70;;
64938;SDS011;51453;47.738;7.420;2023-08-06T14:48:38;0.63;;;0.57;;
64938;SDS011;51453;47.738;7.420;2023-08-06T14:51:04;1.58;;;0.60;;
64938;SDS011;51453;47.738;7.420;2023-08-06T14:53:30;1.45;;;0.70;;
64938;SDS011;51453;47.738;7.420;2023-08-06T14:55:55;1.17;;;0.75;;
64938;SDS011;51453;47.738;7.420;2023-08-06T14:58:21;1.92;;;0.80;;
64938;SDS011;51453;47.738;7.420;2023-08-06T15:00:46;1.65;;;0.90;;